Αναφορές Αεροδρομίων

 

LGTS - Thessaloniki/Mik, Greece
Distance from station: ΝΔ 15km
Ενημερώθηκε: 16/06/2024 04:50
Clear
Clear
 Ανεμος από varies
Ανεμος: varies 4 km/h
Θερμοκρασία: 20°C
Σημείο Δρόσου: 14°C
Υγρασία: 69%
Βαρόμετρο: 1011 hPa
Περίληψη: Clear
Visibility: greater than 10 km
2024/06/16 01:50 LGTS 160150Z VRB02KT CAVOK 20/14 Q1011 NOSIG
LGKZ - Kozani (civ/Army, Greece
Distance from station: ΔΝΔ 113km
Ενημερώθηκε: 16/06/2024 04:50

 Ανεμος από Β
Ανεμος: Β 9 km/h
Θερμοκρασία: 16°C
Σημείο Δρόσου: 10°C
Υγρασία: 68%
Βαρόμετρο: 1013 hPa
2024/06/16 01:50 LGKZ 160150Z AUTO 35005KT //// // ////// 16/10 Q1013 RE//
 
LGKV - Kavala/Chrisoupo, Greece
Distance from station: ΑΒΑ 132km
Ενημερώθηκε: 15/06/2024 23:50
NOT Current
Few Clouds
Few Clouds
 Ανεμος από calm
Ανεμος: Απνοια
Θερμοκρασία: 20°C
Σημείο Δρόσου: 17°C
Υγρασία: 83%
Βαρόμετρο: 1011 hPa
Clouds: Few Clouds
Visibility: 10 km
Cloud details: Few Clouds 610 m
2024/06/15 20:50 LGKV 152050Z 00000KT 9999 FEW020 20/17 Q1011
LGBL - Nea Anchialos, Greece
Distance from station: Ν 156km
Ενημερώθηκε: 16/06/2024 04:50
Clear
Clear
 Ανεμος από calm
Ανεμος: Απνοια
Θερμοκρασία: 19°C
Σημείο Δρόσου: 15°C
Υγρασία: 78%
Βαρόμετρο: 1010 hPa
Περίληψη: Clear
Visibility: greater than 10 km
2024/06/16 01:50 LGBL 160150Z 00000KT CAVOK 19/15 Q1010
 
LGSK - Skiathos Island, Greece
Distance from station: ΝΝΑ 161km
Ενημερώθηκε: 15/06/2024 21:20
NOT Current
Clear
Clear
 Ανεμος από varies
Ανεμος: varies 6 km/h
Θερμοκρασία: 25°C
Σημείο Δρόσου: 15°C
Υγρασία: 54%
Βαρόμετρο: 1010 hPa
Περίληψη: Clear
Visibility: greater than 10 km
2024/06/15 18:20 LGSK 151820Z VRB03KT CAVOK 25/15 Q1010
LWSK - Skopje/Petrovac, Macedonia
Distance from station: ΒΔ 195km
Ενημερώθηκε: 16/06/2024 04:50
Clear
Clear
 Ανεμος από varies
Ανεμος: varies 4 km/h
Θερμοκρασία: 16°C
Σημείο Δρόσου: 13°C
Υγρασία: 83%
Βαρόμετρο: 1012 hPa
Περίληψη: Clear
Visibility: greater than 10 km
2024/06/16 01:50 LWSK 160150Z VRB02KT CAVOK 16/13 Q1012 NOSIG
 
LGLM - Limnos Island Ar, Greece
Distance from station: ΑΝΑ 196km
Ενημερώθηκε: 16/06/2024 04:50
Clear
Clear
 Ανεμος από Β
Ανεμος: Β 6 km/h
Θερμοκρασία: 20°C
Σημείο Δρόσου: 18°C
Υγρασία: 88%
Βαρόμετρο: 1010 hPa
Περίληψη: Clear
Visibility: greater than 10 km
2024/06/16 01:50 LGLM 160150Z 35003KT CAVOK 20/18 Q1010
LWOH - Ohrid, Macedonia
Distance from station: ΔΒΔ 202km
Ενημερώθηκε: 15/06/2024 21:50
NOT Current
Clear
Clear
 Ανεμος από ΑΝΑ
Ανεμος: ΑΝΑ 15 km/h
Θερμοκρασία: 21°C
Σημείο Δρόσου: 16°C
Υγρασία: 73%
Βαρόμετρο: 1014 hPa
Περίληψη: Clear
Visibility: greater than 10 km
2024/06/15 18:50 LWOH 151850Z 12008KT 090V160 CAVOK 21/16 Q1014
 
LGSY - Skiros, Greece
Distance from station: ΝΑ 217km
Ενημερώθηκε: 15/06/2024 20:50
NOT Current
Clear
Clear
 Ανεμος από Α
Ανεμος: Α 7 km/h
Θερμοκρασία: 24°C
Σημείο Δρόσου: 13°C
Υγρασία: 50%
Βαρόμετρο: 1009 hPa
Περίληψη: Clear
Visibility: greater than 10 km
2024/06/15 17:50 LGSY 151750Z 09004KT CAVOK 24/13 Q1009 BLU
LGIO - Ioannina, Greece
Distance from station: ΔΝΔ 218km
Ενημερώθηκε: 16/06/2024 04:50

 Ανεμος από calm
Ανεμος: Απνοια
Θερμοκρασία: 12°C
Σημείο Δρόσου: 12°C
Υγρασία: 100%
Βαρόμετρο: 1014 hPa
2024/06/16 01:50 LGIO 160150Z AUTO 00000KT //// // ////// 12/12 Q1014 RE//
 
LBPD - Plovdiv, Bulgaria
Distance from station: ΒΑ 222km
Ενημερώθηκε: 16/06/2024 05:00
Clear
Clear
 Ανεμος από ΝΔ
Ανεμος: ΝΔ 7 km/h
Θερμοκρασία: 15°C
Σημείο Δρόσου: 9°C
Υγρασία: 68%
Βαρόμετρο: 1012 hPa
Clouds: Clear
Visibility: 10 km
2024/06/16 02:00 LBPD 160200Z AUTO 22004KT 9999 NCD 15/09 Q1012
LBSF - Sofia (observato, Bulgaria
Distance from station: Β 229km
Ενημερώθηκε: 16/06/2024 05:00
Clear
Clear
 Ανεμος από calm
Ανεμος: Απνοια
Θερμοκρασία: 11°C
Σημείο Δρόσου: 10°C
Υγρασία: 94%
Βαρόμετρο: 1014 hPa
Clouds: Clear
Visibility: 10 km
2024/06/16 02:00 LBSF 160200Z AUTO 00000KT 9999 NCD 11/10 Q1014 NOSIG
 
LGAL - Alexandroupolis, Greece
Distance from station: Α 242km
Ενημερώθηκε: 16/06/2024 04:50
Clear
Clear
 Ανεμος από calm
Ανεμος: Απνοια
Θερμοκρασία: 18°C
Σημείο Δρόσου: 15°C
Υγρασία: 83%
Βαρόμετρο: 1010 hPa
Περίληψη: Clear
Visibility: greater than 10 km
2024/06/16 01:50 LGAL 160150Z 00000KT CAVOK 18/15 Q1010
LGPZ - Preveza/Aktion, Greece
Distance from station: ΝΔ 274km
Ενημερώθηκε: 16/06/2024 04:50
Clear
Clear
 Ανεμος από calm
Ανεμος: Απνοια
Θερμοκρασία: 19°C
Σημείο Δρόσου: 18°C
Υγρασία: 94%
Βαρόμετρο: 1012 hPa
Περίληψη: Clear
Visibility: greater than 10 km
2024/06/16 01:50 LGPZ 160150Z 00000KT CAVOK 19/18 Q1012
 
BKPR - Prishtina, Yugoslavia
Distance from station: ΒΔ 280km
Ενημερώθηκε: 16/06/2024 05:00
Clear
Clear
 Ανεμος από varies
Ανεμος: varies 4 km/h
Θερμοκρασία: 14°C
Σημείο Δρόσου: 11°C
Υγρασία: 82%
Βαρόμετρο: 1014 hPa
Περίληψη: Clear
Visibility: greater than 10 km
2024/06/16 02:00 BKPR 160200Z VRB02KT CAVOK 14/11 Q1014 NOSIG
LGEL - Elefsis (hel-Afb, Greece
Distance from station: Ν 284km
Ενημερώθηκε: 16/06/2024 04:50

 Ανεμος από calm
Ανεμος: Απνοια
Θερμοκρασία: 22°C
Σημείο Δρόσου: 14°C
Υγρασία: 61%
Βαρόμετρο: 1010 hPa
2024/06/16 01:50 LGEL 160150Z AUTO 00000KT //// // ////// 22/14 Q1010 RE//
 
LATI - Tirana, Albania
Distance from station: ΔΒΔ 291km
Ενημερώθηκε: 16/06/2024 04:50
Clear
Clear
 Ανεμος από varies
Ανεμος: varies 6 km/h
Θερμοκρασία: 17°C
Σημείο Δρόσου: 17°C
Υγρασία: 100%
Βαρόμετρο: 1012 hPa
Περίληψη: Clear
Visibility: greater than 10 km
2024/06/16 01:50 LATI 160150Z VRB03KT CAVOK 17/17 Q1012 NOSIG
LGKR - Ioannis Kapodist, Greece
Distance from station: ΔΝΔ 292km
Ενημερώθηκε: 16/06/2024 04:50
Clear
Clear
 Ανεμος από calm
Ανεμος: Απνοια
Θερμοκρασία: 20°C
Σημείο Δρόσου: 19°C
Υγρασία: 94%
Βαρόμετρο: 1011 hPa
Περίληψη: Clear
Visibility: greater than 10 km
2024/06/16 01:50 LGKR 160150Z 00000KT CAVOK 20/19 Q1011 NOSIG